createdAt,value
2023-04-16T00:00:45.207Z,6.45
2023-04-16T00:03:48.333Z,7.93
2023-04-16T00:06:51.559Z,7.77
2023-04-16T00:09:54.353Z,10.43
2023-04-16T00:12:57.337Z,16.30
2023-04-16T00:16:00.233Z,8.57
2023-04-16T00:19:03.079Z,13.13
2023-04-16T00:22:06.465Z,21.63
2023-04-16T00:25:14.462Z,9.57
2023-04-16T00:28:17.304Z,7.25
2023-04-16T00:31:31.090Z,6.30
2023-04-16T00:34:34.258Z,6.75
2023-04-16T00:37:37.334Z,4.13
2023-04-16T00:40:40.485Z,3.78
2023-04-16T00:43:43.670Z,4.03
2023-04-16T00:46:46.921Z,5.95
2023-04-16T00:49:50.615Z,8.50
2023-04-16T00:52:53.727Z,6.43
2023-04-16T00:55:57.826Z,5.18
2023-04-16T00:59:01.250Z,4.45
2023-04-16T01:02:04.371Z,4.72
2023-04-16T01:05:07.680Z,5.75
2023-04-16T01:08:21.797Z,4.30
2023-04-16T01:11:25.067Z,5.63
2023-04-16T01:14:28.053Z,5.00
2023-04-16T01:17:30.961Z,4.75
2023-04-16T01:20:36.202Z,5.30
2023-04-16T01:23:39.252Z,6.10
2023-04-16T01:26:42.310Z,7.55
2023-04-16T01:29:45.226Z,8.05
2023-04-16T01:32:49.245Z,7.30
2023-04-16T01:35:52.165Z,5.45
2023-04-16T01:38:55.138Z,5.47
2023-04-16T01:41:58.011Z,5.43
2023-04-16T01:45:01.153Z,4.00
2023-04-16T01:48:04.595Z,4.78
2023-04-16T01:51:07.381Z,5.03
2023-04-16T01:54:10.268Z,4.97
2023-04-16T01:57:13.150Z,3.33
2023-04-16T02:00:16.157Z,3.13
2023-04-16T02:03:24.927Z,3.85
2023-04-16T02:06:29.311Z,4.07
2023-04-16T02:09:34.188Z,3.97
2023-04-16T02:12:37.185Z,4.15
2023-04-16T02:15:40.102Z,3.53
2023-04-16T02:18:42.902Z,3.10
2023-04-16T02:21:46.399Z,3.22
2023-04-16T02:24:50.849Z,3.33
2023-04-16T02:27:53.581Z,3.65
2023-04-16T02:31:11.179Z,3.10
2023-04-16T02:34:19.376Z,3.22
2023-04-16T02:37:22.159Z,2.63
2023-04-16T02:40:25.788Z,2.83
2023-04-16T02:43:28.807Z,3.17
2023-04-16T02:46:32.080Z,2.60
2023-04-16T02:49:36.021Z,2.65
2023-04-16T02:52:39.000Z,4.45
2023-04-16T02:55:41.852Z,3.17
2023-04-16T02:58:44.856Z,2.78
2023-04-16T03:01:48.037Z,3.85
2023-04-16T03:04:51.021Z,3.70
2023-04-16T03:07:56.876Z,3.38
2023-04-16T03:10:59.669Z,3.17
2023-04-16T03:14:02.502Z,4.30
2023-04-16T03:17:05.552Z,3.15
2023-04-16T03:20:09.443Z,3.25
2023-04-16T03:23:12.392Z,3.25
2023-04-16T03:26:15.415Z,4.97
2023-04-16T03:29:18.588Z,4.18
2023-04-16T03:32:21.619Z,3.85
2023-04-16T03:35:24.522Z,5.13
2023-04-16T03:38:27.481Z,5.05
2023-04-16T03:41:32.676Z,3.20
2023-04-16T03:44:36.413Z,3.42
2023-04-16T03:47:39.255Z,3.15
2023-04-16T03:50:47.097Z,4.32
2023-04-16T03:53:51.753Z,3.63
2023-04-16T03:56:55.082Z,3.23
2023-04-16T03:59:58.148Z,4.95
2023-04-16T04:03:03.803Z,3.33
2023-04-16T04:06:08.889Z,3.22
2023-04-16T04:09:12.025Z,4.55
2023-04-16T04:12:15.091Z,3.20
2023-04-16T04:15:19.993Z,4.85
2023-04-16T04:18:23.396Z,5.30
2023-04-16T04:21:28.521Z,4.50
2023-04-16T04:24:31.420Z,3.35
2023-04-16T04:27:34.625Z,3.70
2023-04-16T04:30:38.237Z,3.72
2023-04-16T04:33:42.062Z,4.68
2023-04-16T04:36:44.883Z,2.90
2023-04-16T04:39:49.429Z,3.42
2023-04-16T04:42:53.046Z,3.33
2023-04-16T04:45:58.448Z,2.95
2023-04-16T04:49:03.764Z,3.60
2023-04-16T04:52:08.447Z,2.70
2023-04-16T04:55:11.578Z,2.38
2023-04-16T04:58:14.542Z,3.43
2023-04-16T05:01:18.674Z,2.40
2023-04-16T05:04:21.477Z,2.97
2023-04-16T05:07:24.239Z,3.58
2023-04-16T05:10:27.389Z,4.20
2023-04-16T05:13:30.166Z,4.03
2023-04-16T05:16:32.949Z,3.17
2023-04-16T05:19:35.844Z,4.85
2023-04-16T05:22:38.929Z,6.78
2023-04-16T05:25:41.808Z,5.13
2023-04-16T05:28:44.641Z,5.07
2023-04-16T05:31:47.489Z,5.93
2023-04-16T05:34:50.404Z,5.93
2023-04-16T05:37:53.383Z,6.18
2023-04-16T05:40:56.317Z,5.47
2023-04-16T05:43:59.142Z,5.47
2023-04-16T05:47:02.056Z,7.85
2023-04-16T05:50:05.197Z,5.45
2023-04-16T05:53:09.467Z,7.00
2023-04-16T05:56:12.353Z,3.03
2023-04-16T05:59:15.166Z,5.40
2023-04-16T06:02:18.106Z,4.50
2023-04-16T06:05:20.979Z,3.08
2023-04-16T06:08:24.053Z,3.63
2023-04-16T06:11:27.894Z,3.40
2023-04-16T06:14:30.918Z,3.80
2023-04-16T06:17:33.902Z,4.32
2023-04-16T06:20:36.973Z,4.18
2023-04-16T06:23:40.020Z,3.90
2023-04-16T06:26:42.934Z,3.65
2023-04-16T06:29:45.801Z,6.17
2023-04-16T06:32:49.784Z,6.70
2023-04-16T06:35:52.572Z,4.72
2023-04-16T06:38:55.652Z,4.95
2023-04-16T06:41:58.493Z,5.15
2023-04-16T06:45:01.682Z,5.57
2023-04-16T06:48:05.380Z,6.55
2023-04-16T06:51:08.507Z,5.78
2023-04-16T06:54:11.300Z,5.35
2023-04-16T06:57:14.152Z,8.27
2023-04-16T07:00:19.488Z,7.93
2023-04-16T07:03:22.818Z,7.57
2023-04-16T07:06:26.985Z,7.10
2023-04-16T07:09:29.853Z,6.30
2023-04-16T07:12:33.558Z,5.40
2023-04-16T07:15:36.296Z,6.87
2023-04-16T07:18:39.311Z,7.63
2023-04-16T07:21:44.922Z,6.10
2023-04-16T07:24:47.856Z,7.97
2023-04-16T07:27:50.619Z,7.30
2023-04-16T07:30:53.406Z,7.00
2023-04-16T07:33:56.196Z,6.45
2023-04-16T07:36:59.057Z,7.35
2023-04-16T07:40:02.034Z,8.57
2023-04-16T07:43:04.835Z,7.15
2023-04-16T07:46:07.799Z,8.50
2023-04-16T07:49:10.867Z,10.13
2023-04-16T07:52:14.067Z,10.55
2023-04-16T07:55:16.954Z,11.73
2023-04-16T07:58:19.743Z,11.23
2023-04-16T08:01:22.589Z,11.77
2023-04-16T08:04:26.423Z,11.32
2023-04-16T08:07:29.474Z,11.82
2023-04-16T08:10:33.423Z,12.07
2023-04-16T08:13:36.249Z,11.10
2023-04-16T08:16:40.769Z,12.37
2023-04-16T08:19:45.286Z,13.18
2023-04-16T08:22:49.234Z,11.38
2023-04-16T08:25:53.050Z,13.68
2023-04-16T08:28:56.032Z,13.65
2023-04-16T08:32:00.000Z,15.60
2023-04-16T08:35:03.047Z,12.07
2023-04-16T08:38:07.633Z,13.20
2023-04-16T08:41:13.386Z,13.57
2023-04-16T08:44:49.275Z,12.27
2023-04-16T08:47:53.229Z,12.43
2023-04-16T08:50:56.634Z,12.10
2023-04-16T08:54:04.849Z,11.35
2023-04-16T08:57:12.038Z,13.35
2023-04-16T09:00:16.860Z,12.13
2023-04-16T09:03:22.507Z,12.57
2023-04-16T09:06:28.450Z,12.40
2023-04-16T09:09:33.386Z,12.18
2023-04-16T09:12:40.211Z,10.13
2023-04-16T09:15:46.073Z,10.18
2023-04-16T09:18:48.969Z,10.33
2023-04-16T09:21:51.905Z,13.20
2023-04-16T09:24:54.753Z,10.88
2023-04-16T09:27:57.534Z,10.73
2023-04-16T09:31:17.425Z,13.75
2023-04-16T09:34:21.190Z,11.30
2023-04-16T09:37:24.995Z,9.18
2023-04-16T09:40:30.663Z,9.80
2023-04-16T09:43:33.562Z,10.38
2023-04-16T09:46:45.546Z,10.77
2023-04-16T09:49:48.627Z,10.27
2023-04-16T09:52:51.901Z,9.55
2023-04-16T09:56:01.568Z,8.63
2023-04-16T09:59:04.405Z,8.75
2023-04-16T10:02:14.514Z,9.65
2023-04-16T10:05:20.525Z,10.30
2023-04-16T10:08:24.289Z,8.73
2023-04-16T10:11:27.387Z,9.15
2023-04-16T10:14:30.109Z,8.75
2023-04-16T10:17:33.532Z,10.00
2023-04-16T10:20:37.415Z,11.83
2023-04-16T10:23:41.713Z,9.32
2023-04-16T10:26:45.449Z,7.55
2023-04-16T10:29:49.499Z,8.70
2023-04-16T10:32:52.992Z,9.15
2023-04-16T10:36:12.076Z,6.33
2023-04-16T10:39:19.072Z,7.10
2023-04-16T10:42:22.083Z,7.15
2023-04-16T10:45:37.784Z,5.53
2023-04-16T10:48:49.591Z,7.32
2023-04-16T10:51:58.862Z,6.43
2023-04-16T10:55:01.570Z,6.25
2023-04-16T10:58:27.605Z,12.20
2023-04-16T11:01:32.716Z,8.55
2023-04-16T11:04:37.811Z,5.15
2023-04-16T11:07:49.563Z,6.20
2023-04-16T11:10:53.420Z,4.90
2023-04-16T11:13:57.222Z,5.93
2023-04-16T11:17:03.989Z,6.18
2023-04-16T11:20:20.492Z,8.18
2023-04-16T11:23:23.815Z,5.97
2023-04-16T11:26:30.872Z,7.10
2023-04-16T11:29:34.281Z,5.90
2023-04-16T11:32:40.488Z,5.72
2023-04-16T11:35:43.722Z,5.20
2023-04-16T11:38:47.388Z,4.97
2023-04-16T11:41:52.670Z,5.13
2023-04-16T11:44:57.081Z,5.05
2023-04-16T11:48:00.045Z,4.78
2023-04-16T11:51:03.244Z,6.18
2023-04-16T11:54:08.066Z,6.07
2023-04-16T11:57:13.560Z,5.47
2023-04-16T12:00:16.697Z,6.35
2023-04-16T12:03:19.670Z,6.75
2023-04-16T12:06:24.336Z,10.45
2023-04-16T12:09:27.469Z,9.60
2023-04-16T12:12:32.620Z,9.10
2023-04-16T12:15:49.830Z,9.07
2023-04-16T12:19:05.756Z,7.38
2023-04-16T12:22:08.491Z,9.80
2023-04-16T12:25:12.879Z,8.30
2023-04-16T12:28:26.693Z,8.30
2023-04-16T12:31:38.743Z,7.65
2023-04-16T12:34:51.742Z,9.43
2023-04-16T12:37:54.538Z,8.77
2023-04-16T12:40:58.571Z,8.33
2023-04-16T12:44:12.931Z,6.50
2023-04-16T12:47:15.884Z,8.80
2023-04-16T12:50:18.880Z,9.00
2023-04-16T12:53:21.807Z,5.97
2023-04-16T12:56:24.799Z,5.97
2023-04-16T12:59:28.024Z,5.38
2023-04-16T13:02:32.456Z,5.55
2023-04-16T13:05:35.526Z,7.25
2023-04-16T13:08:38.451Z,6.82
2023-04-16T13:11:41.889Z,6.80
2023-04-16T13:14:45.305Z,7.53
2023-04-16T13:17:48.218Z,5.85
2023-04-16T13:20:51.212Z,6.07
2023-04-16T13:23:54.658Z,7.00
2023-04-16T13:26:57.548Z,5.27
2023-04-16T13:30:00.582Z,5.03
2023-04-16T13:33:03.879Z,6.75
2023-04-16T13:36:07.103Z,9.02
2023-04-16T13:39:13.070Z,7.93
2023-04-16T13:42:15.834Z,6.70
2023-04-16T13:45:20.616Z,9.32
2023-04-16T13:48:23.614Z,8.30
2023-04-16T13:51:27.794Z,10.02
2023-04-16T13:54:30.745Z,5.60
2023-04-16T13:57:33.906Z,6.30
2023-04-16T14:00:37.678Z,6.10
2023-04-16T14:03:42.067Z,8.05
2023-04-16T14:06:45.034Z,6.15
2023-04-16T14:09:48.001Z,5.75
2023-04-16T14:12:51.552Z,7.20
2023-04-16T14:15:55.001Z,3.58
2023-04-16T14:19:00.377Z,4.82
2023-04-16T14:22:03.235Z,8.73
2023-04-16T14:25:07.234Z,6.65
2023-04-16T14:28:10.124Z,6.63
2023-04-16T14:31:13.171Z,5.03
2023-04-16T14:34:17.105Z,6.50
2023-04-16T14:37:20.333Z,6.53
2023-04-16T14:40:23.504Z,5.60
2023-04-16T14:43:27.378Z,5.67
2023-04-16T14:46:30.669Z,5.18
2023-04-16T14:49:34.533Z,5.45
2023-04-16T14:52:37.712Z,6.97
2023-04-16T14:55:40.744Z,5.90
2023-04-16T14:58:43.792Z,6.00
2023-04-16T15:01:47.398Z,5.40
2023-04-16T15:04:50.487Z,6.30
2023-04-16T15:07:53.886Z,6.38
2023-04-16T15:10:57.093Z,5.22
2023-04-16T15:14:00.002Z,8.10
2023-04-16T15:17:03.474Z,7.90
2023-04-16T15:20:08.364Z,8.30
2023-04-16T15:23:11.192Z,8.88
2023-04-16T15:26:14.410Z,8.25
2023-04-16T15:29:17.583Z,5.73
2023-04-16T15:32:20.618Z,5.68
2023-04-16T15:35:23.736Z,6.88
2023-04-16T15:38:26.947Z,6.05
2023-04-16T15:41:32.110Z,6.15
2023-04-16T15:44:35.147Z,5.43
2023-04-16T15:47:40.173Z,6.55
2023-04-16T15:50:44.786Z,7.68
2023-04-16T15:53:49.603Z,7.05
2023-04-16T15:56:52.667Z,5.43
2023-04-16T16:00:06.606Z,6.60
2023-04-16T16:03:11.188Z,6.40
2023-04-16T16:06:14.225Z,5.85
2023-04-16T16:09:17.511Z,5.07
2023-04-16T16:12:20.535Z,5.28
2023-04-16T16:15:23.554Z,4.53
2023-04-16T16:18:26.529Z,4.13
2023-04-16T16:21:32.930Z,6.55
2023-04-16T16:24:35.958Z,8.02
2023-04-16T16:27:40.750Z,8.75
2023-04-16T16:30:43.812Z,11.73
2023-04-16T16:33:47.016Z,12.07
2023-04-16T16:36:50.228Z,9.55
2023-04-16T16:39:53.201Z,8.55
2023-04-16T16:42:56.279Z,9.93
2023-04-16T16:45:59.524Z,9.27
2023-04-16T16:49:05.332Z,5.25
2023-04-16T16:52:08.406Z,4.30
2023-04-16T16:55:11.714Z,5.85
2023-04-16T16:58:14.584Z,3.55
2023-04-16T17:01:18.104Z,6.70
2023-04-16T17:04:21.264Z,5.63
2023-04-16T17:07:24.185Z,6.63
2023-04-16T17:10:27.190Z,5.65
2023-04-16T17:13:32.810Z,5.57
2023-04-16T17:16:36.206Z,4.93
2023-04-16T17:19:39.313Z,3.25
2023-04-16T17:22:42.996Z,10.60
2023-04-16T17:25:46.298Z,9.88
2023-04-16T17:28:51.127Z,13.55
2023-04-16T17:31:54.404Z,15.57
2023-04-16T17:34:57.573Z,22.20
2023-04-16T17:38:01.342Z,23.02
2023-04-16T17:41:04.508Z,18.42
2023-04-16T17:44:09.921Z,16.17
2023-04-16T17:47:14.766Z,7.63
2023-04-16T17:50:17.784Z,7.78
2023-04-16T17:53:22.239Z,11.23
2023-04-16T17:56:25.207Z,10.40
2023-04-16T17:59:28.410Z,18.75
2023-04-16T18:02:31.837Z,17.00
2023-04-16T18:05:35.155Z,14.57
2023-04-16T18:08:38.386Z,17.88
2023-04-16T18:11:42.980Z,13.10
2023-04-16T18:14:46.313Z,10.10
2023-04-16T18:17:49.377Z,11.10
2023-04-16T18:20:52.954Z,9.38
2023-04-16T18:23:56.054Z,11.20
2023-04-16T18:26:59.128Z,9.40
2023-04-16T18:30:04.427Z,10.75
2023-04-16T18:33:34.249Z,8.93
2023-04-16T18:36:31.372Z,11.02
2023-04-16T18:39:34.468Z,9.73
2023-04-16T18:42:37.451Z,12.18
2023-04-16T18:45:41.918Z,10.57
2023-04-16T18:48:45.951Z,10.50
2023-04-16T18:51:48.947Z,7.75
2023-04-16T18:54:52.095Z,9.80
2023-04-16T18:57:55.386Z,8.60
2023-04-16T19:00:59.261Z,6.68
2023-04-16T19:04:03.434Z,6.67
2023-04-16T19:07:06.511Z,7.78
2023-04-16T19:10:09.876Z,7.10
2023-04-16T19:13:13.188Z,6.18
2023-04-16T19:16:17.163Z,6.47
2023-04-16T19:19:21.978Z,6.37
2023-04-16T19:22:25.612Z,6.90
2023-04-16T19:25:28.571Z,5.28
2023-04-16T19:28:31.557Z,7.15
2023-04-16T19:31:35.206Z,5.22
2023-04-16T19:34:38.041Z,5.03
2023-04-16T19:37:41.328Z,5.00
2023-04-16T19:40:46.030Z,6.18
2023-04-16T19:43:49.514Z,4.45
2023-04-16T19:46:52.744Z,4.70
2023-04-16T19:49:55.887Z,5.17
2023-04-16T19:52:59.045Z,6.72
2023-04-16T19:56:02.206Z,9.90
2023-04-16T19:59:05.261Z,7.82
2023-04-16T20:02:08.619Z,11.00
2023-04-16T20:05:11.773Z,8.10
2023-04-16T20:08:15.024Z,8.23
2023-04-16T20:11:18.315Z,8.07
2023-04-16T20:14:21.184Z,10.02
2023-04-16T20:17:24.501Z,9.07
2023-04-16T20:20:27.664Z,12.00
2023-04-16T20:23:30.989Z,12.45
2023-04-16T20:26:34.370Z,11.65
2023-04-16T20:29:37.344Z,10.88
2023-04-16T20:32:40.079Z,13.32
2023-04-16T20:35:42.917Z,14.80
2023-04-16T20:38:46.791Z,14.80
2023-04-16T20:41:57.281Z,15.68
2023-04-16T20:45:00.917Z,13.60
2023-04-16T20:48:08.086Z,16.17
2023-04-16T20:51:11.113Z,15.60
2023-04-16T20:54:13.890Z,15.50
2023-04-16T20:57:16.764Z,13.80
2023-04-16T21:00:19.840Z,14.38
2023-04-16T21:03:23.169Z,11.85
2023-04-16T21:06:26.045Z,13.20
2023-04-16T21:09:29.823Z,12.75
2023-04-16T21:12:32.702Z,12.50
2023-04-16T21:15:37.084Z,13.07
2023-04-16T21:18:40.022Z,12.13
2023-04-16T21:21:42.878Z,11.13
2023-04-16T21:24:45.888Z,11.18
2023-04-16T21:27:48.838Z,9.95
2023-04-16T21:30:52.493Z,12.32
2023-04-16T21:33:55.542Z,8.88
2023-04-16T21:36:58.409Z,11.60
2023-04-16T21:40:01.243Z,9.85
2023-04-16T21:43:04.017Z,11.10
2023-04-16T21:46:06.757Z,7.40
2023-04-16T21:49:09.742Z,6.95
2023-04-16T21:52:18.363Z,7.47
2023-04-16T21:55:21.371Z,7.75
2023-04-16T21:58:25.869Z,7.45
2023-04-16T22:01:28.820Z,7.93
2023-04-16T22:04:38.736Z,6.55
2023-04-16T22:07:41.960Z,6.57
2023-04-16T22:10:44.777Z,7.57
2023-04-16T22:13:47.846Z,5.93
2023-04-16T22:16:51.838Z,6.65
2023-04-16T22:19:55.348Z,4.78
2023-04-16T22:22:58.938Z,5.80
2023-04-16T22:26:03.111Z,5.15
2023-04-16T22:29:06.830Z,6.50
2023-04-16T22:32:09.903Z,5.55
2023-04-16T22:35:13.127Z,6.18
2023-04-16T22:38:16.615Z,5.23
2023-04-16T22:41:19.553Z,4.85
2023-04-16T22:44:22.359Z,6.70
2023-04-16T22:47:25.360Z,4.90
2023-04-16T22:50:28.719Z,5.63
2023-04-16T22:53:31.679Z,4.63
2023-04-16T22:56:34.429Z,5.82
2023-04-16T22:59:37.265Z,6.35
2023-04-16T23:02:40.180Z,5.00
2023-04-16T23:05:43.021Z,6.05
2023-04-16T23:08:45.776Z,8.53
2023-04-16T23:11:49.151Z,4.38
2023-04-16T23:14:53.263Z,5.30
2023-04-16T23:17:56.256Z,6.38
2023-04-16T23:20:59.171Z,4.93
2023-04-16T23:24:02.175Z,7.70
2023-04-16T23:27:05.066Z,4.75
2023-04-16T23:30:08.491Z,5.50
2023-04-16T23:33:14.647Z,7.00
2023-04-16T23:36:17.547Z,5.40
2023-04-16T23:39:20.639Z,6.17
2023-04-16T23:42:23.686Z,4.10
2023-04-16T23:45:26.639Z,5.90
2023-04-16T23:48:29.484Z,7.90
2023-04-16T23:51:32.413Z,5.07
2023-04-16T23:54:35.293Z,5.07
2023-04-16T23:57:38.052Z,6.18
